Latest Coastal Weather Observations for Flinders Reef

IDQ60701

Issued at 5:42 pm EST Monday 22 December 2014 (issued every 10 minutes, with the page automatically refreshed every 10 minutes)

About coastal observations | Map of coastal stations | Coastal observations for QLD | Marine services | Other Formats
Station Details ID: 200783 Name: FLINDERS REEF Lat: -17.72 Lon: 148.45 Height: 2.6 m
Data from the previous 72 hours. | See also: Recent months at Flinders Reef
Date/Time
EST
Temp

°C
Wind Pressure Rain
since 9am
mm
Weather Cloud Vis
km
Sea
Height
m
Swell
Dir
 
Speed
knots
Gust
knots
hPa Trend Height
m
Period
s
Dir
22/05:30pm - SE 17 19 1010.6 - - - - - - - - -
22/05:24pm - SE 17 - 1010.4 - - - - - - - - -
22/05:00pm - ESE 18 22 1010.3 - - - - - - - - -
22/04:30pm - ESE 18 21 1010.3 - - - - - - - - -
22/04:24pm - SE 18 - 1010.2 - - - - - - - - -
22/04:00pm - ESE 20 23 1010.2 - - - - - - - - -
22/03:30pm - SE 20 23 1010.2 - - - - - - - - -
22/03:24pm - ESE 19 - 1010.2 - - - - - - - - -
22/03:00pm - ESE 19 21 1010.4 - - - - - - - - -
22/02:30pm - ESE 18 21 1010.9 - - - - - - - - -
22/02:24pm - ESE 17 - 1010.9 - - - - - - - - -
22/02:00pm - SE 18 21 1011.1 - - - - - - - - -
22/01:30pm - ESE 19 22 1011.4 - - - - - - - - -
22/01:24pm - ESE 19 - 1011.3 - - - - - - - - -
22/01:00pm - ESE 17 20 1011.6 - - - - - - - - -
22/12:30pm - ESE 16 19 1011.8 - - - - - - - - -
22/12:24pm - ESE 15 - 1011.8 - - - - - - - - -
22/12:00pm - ESE 16 19 1012.1 - - - - - - - - -
22/11:30am - ESE 17 21 1012.2 - - - - - - - - -
22/11:24am - ESE 17 - 1012.1 - - - - - - - - -
22/11:00am - ESE 17 19 1012.3 - - - - - - - - -
22/10:30am - ESE 16 19 1012.4 - - - - - - - - -
22/10:24am - E 17 - 1012.3 - - - - - - - - -
22/10:00am - ESE 19 21 1012.5 - - - - - - - - -
22/09:30am - E 18 21 1012.2 - - - - - - - - -
22/09:24am - E 18 - 1012.0 - - - - - - - - -
22/09:00am - ESE 17 20 1012.2 - - - - - - - - -
22/08:30am - ESE 17 21 1012.1 - - - - - - - - -
22/08:24am - ESE 17 - 1012.0 - - - - - - - - -
22/08:00am - ESE 19 23 1012.2 - - - - - - - - -
22/07:30am - ESE 18 22 1012.1 - - - - - - - - -
22/07:24am - ESE 19 - 1011.9 - - - - - - - - -
22/07:00am - ESE 19 22 1011.7 - - - - - - - - -
22/06:30am - ESE 18 21 1011.5 - - - - - - - - -
22/06:24am - ESE 19 - 1011.4 - - - - - - - - -
22/06:00am - ESE 19 23 1011.1 - - - - - - - - -
22/05:30am - ESE 19 22 1010.5 - - - - - - - - -
22/05:24am - ESE 19 - 1010.3 - - - - - - - - -
22/05:00am - ESE 20 23 1010.2 - - - - - - - - -
22/04:30am - E 21 24 1009.9 - - - - - - - - -
22/04:24am - E 21 - 1009.8 - - - - - - - - -
22/04:00am - E 21 23 1009.8 - - - - - - - - -
22/03:30am - E 20 24 1009.8 - - - - - - - - -
22/03:24am - E 20 - 1009.6 - - - - - - - - -
22/03:00am - E 21 25 1009.8 - - - - - - - - -
22/02:30am - ESE 21 24 1009.9 - - - - - - - - -
22/02:24am - ESE 21 - 1009.9 - - - - - - - - -
22/02:00am - ESE 21 25 1010.4 - - - - - - - - -
22/01:30am - E 21 24 1010.7 - - - - - - - - -
22/01:24am - E 21 - 1010.7 - - - - - - - - -
22/01:00am - E 20 22 1011.1 - - - - - - - - -
22/12:30am - E 20 23 1011.3 - - - - - - - - -
22/12:24am - E 20 - 1011.3 - - - - - - - - -
22/12:00am - E 19 24 1011.7 - - - - - - - - -
 
Date/Time
EST
Temp

°C
Wind Pressure Rain
since 9am
mm
Weather Cloud Vis
km
Sea
Height
m
Swell
Dir
 
Speed
knots
Gust
knots
hPa Trend Height
m
Period
s
Dir
21/11:30pm - E 21 23 1012.1 - - - - - - - - -
21/11:24pm - ESE 18 - 1012.0 - - - - - - - - -
21/11:00pm - ESE 25 29 1012.2 - - - - - - - - -
21/10:30pm - E 19 21 1012.2 - - - - - - - - -
21/10:24pm - ESE 20 - 1012.1 - - - - - - - - -
21/10:00pm - ESE 20 23 1012.1 - - - - - - - - -
21/09:30pm - ESE 19 22 1011.9 - - - - - - - - -
21/09:24pm - ESE 19 - 1011.8 - - - - - - - - -
21/09:00pm - ESE 17 22 1011.9 - - - - - - - - -
21/08:30pm - E 16 18 1011.7 - - - - - - - - -
21/08:24pm - E 17 - 1011.5 - - - - - - - - -
21/08:00pm - E 15 18 1011.4 - - - - - - - - -
21/07:30pm - E 16 20 1011.2 - - - - - - - - -
21/07:24pm - ESE 16 - 1011.1 - - - - - - - - -
21/07:00pm - ESE 16 18 1011.0 - - - - - - - - -
21/06:30pm - ESE 15 18 1010.9 - - - - - - - - -
21/06:24pm - ESE 15 - 1010.9 - - - - - - - - -
21/06:00pm - ESE 16 19 1010.8 - - - - - - - - -
21/05:30pm - ESE 14 16 1010.6 - - - - - - - - -
21/05:24pm - ESE 14 - 1010.4 - - - - - - - - -
21/05:00pm - ESE 13 16 1010.6 - - - - - - - - -
21/04:30pm - SE 14 17 1010.5 - - - - - - - - -
21/04:24pm - ESE 13 - 1010.3 - - - - - - - - -
21/04:00pm - ESE 11 14 1010.6 - - - - - - - - -
21/03:30pm - ESE 11 13 1010.6 - - - - - - - - -
21/03:24pm - ESE 11 - 1010.5 - - - - - - - - -
21/03:00pm - ESE 11 13 1010.5 - - - - - - - - -
21/02:30pm - ESE 12 14 1010.9 - - - - - - - - -
21/02:24pm - ESE 12 - 1010.9 - - - - - - - - -
21/02:00pm - ESE 12 14 1011.4 - - - - - - - - -
21/01:30pm - E 11 14 1011.4 - - - - - - - - -
21/01:24pm - E 11 - 1011.4 - - - - - - - - -
21/01:00pm - ESE 11 12 1011.8 - - - - - - - - -
21/12:30pm - ESE 12 13 1011.9 - - - - - - - - -
21/12:24pm - SE 12 - 1011.9 - - - - - - - - -
21/12:00pm - SE 13 15 1012.3 - - - - - - - - -
21/11:30am - ESE 10 13 1012.6 - - - - - - - - -
21/11:24am - ESE 11 - 1012.4 - - - - - - - - -
21/11:00am - E 11 13 1012.7 - - - - - - - - -
21/10:30am - E 10 11 1012.6 - - - - - - - - -
21/10:24am - E 10 - 1012.5 - - - - - - - - -
21/10:00am - E 10 12 1012.7 - - - - - - - - -
21/09:30am - ENE 11 12 1012.6 - - - - - - - - -
21/09:24am - ENE 11 - 1012.4 - - - - - - - - -
21/09:00am - ENE 11 13 1012.6 - - - - - - - - -
21/08:30am - E 12 14 1012.4 - - - - - - - - -
21/08:24am - E 12 - 1012.3 - - - - - - - - -
21/08:00am - E 13 15 1012.2 - - - - - - - - -
21/07:30am - E 13 15 1012.2 - - - - - - - - -
21/07:24am - E 12 - 1012.0 - - - - - - - - -
21/07:00am - E 12 13 1012.0 - - - - - - - - -
21/06:30am - E 11 14 1011.6 - - - - - - - - -
21/06:24am - E 13 - 1011.4 - - - - - - - - -
21/06:00am - E 13 15 1011.1 - - - - - - - - -
21/05:30am - E 11 13 1010.6 - - - - - - - - -
21/05:24am - E 10 - 1010.5 - - - - - - - - -
21/05:00am - E 10 12 1010.3 - - - - - - - - -
21/04:30am - E 11 13 1010.1 - - - - - - - - -
21/04:24am - E 12 - 1009.9 - - - - - - - - -
21/04:00am - E 12 14 1009.9 - - - - - - - - -
21/03:30am - E 13 15 1009.8 - - - - - - - - -
21/03:24am - E 14 - 1009.5 - - - - - - - - -
21/03:00am - E 15 16 1009.6 - - - - - - - - -
21/02:30am - E 15 17 1009.8 - - - - - - - - -
21/02:24am - E 15 - 1009.8 - - - - - - - - -
21/02:00am - E 15 16 1010.1 - - - - - - - - -
21/01:30am - E 16 17 1010.3 - - - - - - - - -
21/01:24am - E 16 - 1010.3 - - - - - - - - -
21/01:00am - E 14 16 1010.6 - - - - - - - - -
21/12:30am - E 15 18 1011.1 - - - - - - - - -
21/12:24am - E 16 - 1010.9 - - - - - - - - -
21/12:00am - E 16 17 1011.3 - - - - - - - - -
 
Date/Time
EST
Temp

°C
Wind Pressure Rain
since 9am
mm
Weather Cloud Vis
km
Sea
Height
m
Swell
Dir
 
Speed
knots
Gust
knots
hPa Trend Height
m
Period
s
Dir
20/11:30pm - ESE 15 18 1011.7 - - - - - - - - -
20/11:24pm - ESE 16 - 1011.7 - - - - - - - - -
20/11:00pm - ESE 16 18 1011.9 - - - - - - - - -
20/10:30pm - ESE 15 16 1011.9 - - - - - - - - -
20/10:24pm - ESE 15 - 1011.8 - - - - - - - - -
20/10:00pm - ESE 12 14 1011.9 - - - - - - - - -
20/09:30pm - E 11 13 1011.6 - - - - - - - - -
20/09:24pm - E 11 - 1011.6 - - - - - - - - -
20/09:00pm - E 11 13 1011.6 - - - - - - - - -
20/08:30pm - E 10 11 1011.4 - - - - - - - - -
20/08:24pm - E 10 - 1011.3 - - - - - - - - -
20/08:00pm - E 11 12 1011.1 - - - - - - - - -
20/07:30pm - E 10 11 1011.0 - - - - - - - - -
20/07:24pm - E 10 - 1010.8 - - - - - - - - -
20/07:00pm - E 11 13 1010.4 - - - - - - - - -
20/06:30pm - E 10 12 1010.0 - - - - - - - - -
20/06:24pm - E 10 - 1009.9 - - - - - - - - -
20/06:00pm - E 9 11 1009.6 - - - - - - - - -
20/05:30pm - E 8 10 1009.6 - - - - - - - - -
20/05:24pm - E 8 - 1009.4 - - - - - - - - -
20/05:00pm - E 6 10 1009.2 - - - - - - - - -
20/04:30pm - E 8 9 1009.2 - - - - - - - - -
20/04:24pm - E 8 - 1009.1 - - - - - - - - -
20/04:00pm - E 8 10 1009.2 - - - - - - - - -
20/03:30pm - ESE 8 9 1009.2 - - - - - - - - -
20/03:24pm - ESE 7 - 1009.1 - - - - - - - - -
20/03:00pm - ESE 8 10 1009.5 - - - - - - - - -
20/02:30pm - ESE 8 9 1009.7 - - - - - - - - -
20/02:24pm - ESE 8 - 1009.7 - - - - - - - - -
20/02:00pm - SSE 7 9 1009.9 - - - - - - - - -
20/01:30pm - SSE 6 7 1010.3 - - - - - - - - -
20/01:24pm - SE 6 - 1010.3 - - - - - - - - -
20/01:00pm - E 6 8 1010.7 - - - - - - - - -
20/12:30pm - E 5 6 1011.1 - - - - - - - - -
20/12:24pm - E 6 - 1011.1 - - - - - - - - -
20/12:00pm - E 6 8 1011.2 - - - - - - - - -
20/11:30am - ENE 7 8 1011.7 - - - - - - - - -
20/11:24am - ENE 7 - 1011.6 - - - - - - - - -
20/11:00am - E 7 9 1012.0 - - - - - - - - -
20/10:30am - E 7 9 1012.2 - - - - - - - - -
20/10:24am - E 7 - 1012.2 - - - - - - - - -
20/10:00am - E 7 8 1012.3 - - - - - - - - -
20/09:30am - E 7 9 1012.3 - - - - - - - - -
20/09:24am - E 7 - 1012.1 - - - - - - - - -
20/09:00am - E 8 9 1012.0 - - - - - - - - -
20/08:30am - E 8 9 1011.9 - - - - - - - - -
20/08:24am - E 8 - 1011.8 - - - - - - - - -
20/08:00am - E 6 7 1011.9 - - - - - - - - -
20/07:30am - E 8 9 1011.6 - - - - - - - - -
20/07:24am - E 8 - 1011.5 - - - - - - - - -
20/07:00am - E 10 11 1011.3 - - - - - - - - -
20/06:30am - E 9 11 1011.1 - - - - - - - - -
20/06:24am - NE 8 - 1010.9 - - - - - - - - -
20/06:00am - NE 5 9 1010.9 - - - - - - - - -
20/05:30am - CALM 0 2 1010.3 - - - - - - - - -
20/05:24am - CALM 0 - 1010.2 - - - - - - - - -
20/05:00am - CALM 0 3 1010.2 - - - - - - - - -
20/04:30am - CALM 0 2 1010.0 - - - - - - - - -
20/04:24am - CALM 0 - 1009.9 - - - - - - - - -
20/04:00am - CALM 0 2 1010.1 - - - - - - - - -
20/03:30am - CALM 0 2 1010.0 - - - - - - - - -
20/03:24am - CALM 0 - 1009.9 - - - - - - - - -
20/03:00am - CALM 0 2 1010.0 - - - - - - - - -
20/02:30am - CALM 0 3 1010.1 - - - - - - - - -
20/02:24am - CALM 0 - 1010.0 - - - - - - - - -
20/02:00am - CALM 0 2 1010.3 - - - - - - - - -
20/01:30am - CALM 0 2 1010.4 - - - - - - - - -
20/01:24am - CALM 0 - 1010.3 - - - - - - - - -
20/01:00am - CALM 0 3 1010.8 - - - - - - - - -
20/12:30am - CALM 0 2 1011.4 - - - - - - - - -
20/12:24am - CALM 0 - 1011.5 - - - - - - - - -
20/12:00am - CALM 0 2 1011.9 - - - - - - - - -
 
Date/Time
EST
Temp

°C
Wind Pressure Rain
since 9am
mm
Weather Cloud Vis
km
Sea
Height
m
Swell
Dir
 
Speed
knots
Gust
knots
hPa Trend Height
m
Period
s
Dir
19/11:30pm - CALM 0 2 1012.1 - - - - - - - - -
19/11:24pm - CALM 0 - 1012.0 - - - - - - - - -
19/11:00pm - CALM 0 2 1012.1 - - - - - - - - -
19/10:30pm - CALM 0 3 1012.2 - - - - - - - - -
19/10:24pm - E 1 - 1012.2 - - - - - - - - -
19/10:00pm - CALM 0 2 1012.3 - - - - - - - - -
19/09:30pm - E 1 2 1011.8 - - - - - - - - -
19/09:24pm - E 1 - 1011.6 - - - - - - - - -
19/09:00pm - CALM 0 3 1011.5 - - - - - - - - -
19/08:30pm - CALM 0 3 1011.3 - - - - - - - - -
19/08:24pm - CALM 0 - 1011.1 - - - - - - - - -
19/08:00pm - CALM 0 2 1011.2 - - - - - - - - -
19/07:30pm - E 1 3 1011.0 - - - - - - - - -
19/07:24pm - E 1 - 1010.8 - - - - - - - - -
19/07:00pm - E 4 9 1010.7 - - - - - - - - -
19/06:30pm - E 3 7 1010.6 - - - - - - - - -
19/06:24pm - ESE 3 - 1010.5 - - - - - - - - -
19/06:00pm - CALM 0 3 1010.4 - - - - - - - - -

Other Formats:

Comma delimited format used in spreadsheet applications
http://www.bom.gov.au/fwo/IDQ60701/IDQ60701.94290.axf

JavaScript Object Notation format (JSON) in row-major order
http://www.bom.gov.au/fwo/IDQ60701/IDQ60701.94290.json